Terminal Aerodrome Forecast
Issued by NWS

Home | Current Version | Previous Version | Text Only | Print | Product List | Glossary On
Versions: 1 2 3 4 5 6 7 8 9 10 11 12 13 14 15
000
FTUS45 KTWC 191735
TAFOLS
TAF
KOLS 191735Z 1918/2018 20012G22KT P6SM VCSH SCT025 OVC040
      TEMPO 1918/1919 -SHRA BKN020
     FM191930 21022G32KT P6SM SCT050
     FM200300 21015G23KT P6SM SCT050
     FM200700 20011KT P6SM SCT050=

USA.gov is the U.S. government's official web portal to all federal, state and local government web resources and services.